sensor_id;sensor_type;location;lat;lon;timestamp;temperature;humidity
69082;DHT22;69029;51.986;5.760;2023-05-15T00:00:10;13.00;94.80
69082;DHT22;69029;51.986;5.760;2023-05-15T00:02:37;12.90;92.90
69082;DHT22;69029;51.986;5.760;2023-05-15T00:05:03;12.90;93.70
69082;DHT22;69029;51.986;5.760;2023-05-15T00:07:30;12.90;93.70
69082;DHT22;69029;51.986;5.760;2023-05-15T00:09:55;12.90;92.80
69082;DHT22;69029;51.986;5.760;2023-05-15T00:12:21;12.90;94.60
69082;DHT22;69029;51.986;5.760;2023-05-15T00:14:46;12.80;96.40
69082;DHT22;69029;51.986;5.760;2023-05-15T00:17:12;12.80;95.60
69082;DHT22;69029;51.986;5.760;2023-05-15T00:19:38;12.80;93.70
69082;DHT22;69029;51.986;5.760;2023-05-15T00:22:03;12.70;92.10
69082;DHT22;69029;51.986;5.760;2023-05-15T00:24:29;12.70;94.30
69082;DHT22;69029;51.986;5.760;2023-05-15T00:26:55;12.70;92.60
69082;DHT22;69029;51.986;5.760;2023-05-15T00:29:20;12.70;93.20
69082;DHT22;69029;51.986;5.760;2023-05-15T00:31:46;12.70;94.80
69082;DHT22;69029;51.986;5.760;2023-05-15T00:34:11;12.60;95.20
69082;DHT22;69029;51.986;5.760;2023-05-15T00:36:37;12.60;93.20
69082;DHT22;69029;51.986;5.760;2023-05-15T00:39:03;12.60;95.60
69082;DHT22;69029;51.986;5.760;2023-05-15T00:41:29;12.60;95.50
69082;DHT22;69029;51.986;5.760;2023-05-15T00:43:56;12.60;96.60
69082;DHT22;69029;51.986;5.760;2023-05-15T00:46:25;12.50;96.20
69082;DHT22;69029;51.986;5.760;2023-05-15T00:48:51;12.50;95.10
69082;DHT22;69029;51.986;5.760;2023-05-15T00:51:17;12.50;96.20
69082;DHT22;69029;51.986;5.760;2023-05-15T00:53:43;12.40;96.40
69082;DHT22;69029;51.986;5.760;2023-05-15T00:56:10;12.50;97.20
69082;DHT22;69029;51.986;5.760;2023-05-15T00:58:37;12.50;91.40
69082;DHT22;69029;51.986;5.760;2023-05-15T01:01:03;12.40;90.50
69082;DHT22;69029;51.986;5.760;2023-05-15T01:03:29;12.40;95.20
69082;DHT22;69029;51.986;5.760;2023-05-15T01:05:55;12.30;93.70
69082;DHT22;69029;51.986;5.760;2023-05-15T01:08:43;12.30;91.70
69082;DHT22;69029;51.986;5.760;2023-05-15T01:11:11;12.30;97.40
69082;DHT22;69029;51.986;5.760;2023-05-15T01:13:37;12.30;94.90
69082;DHT22;69029;51.986;5.760;2023-05-15T01:16:03;12.20;92.90
69082;DHT22;69029;51.986;5.760;2023-05-15T01:18:29;12.20;97.70
69082;DHT22;69029;51.986;5.760;2023-05-15T01:21:15;12.20;97.00
69082;DHT22;69029;51.986;5.760;2023-05-15T01:29:14;12.00;97.10
69082;DHT22;69029;51.986;5.760;2023-05-15T01:31:46;12.10;98.70
69082;DHT22;69029;51.986;5.760;2023-05-15T01:34:15;12.00;99.00
69082;DHT22;69029;51.986;5.760;2023-05-15T01:36:52;12.00;96.20
69082;DHT22;69029;51.986;5.760;2023-05-15T01:39:19;11.90;96.70
69082;DHT22;69029;51.986;5.760;2023-05-15T01:41:54;11.90;99.90
69082;DHT22;69029;51.986;5.760;2023-05-15T01:44:27;11.90;97.30
69082;DHT22;69029;51.986;5.760;2023-05-15T01:47:03;11.90;99.20
69082;DHT22;69029;51.986;5.760;2023-05-15T01:49:31;11.90;96.30
69082;DHT22;69029;51.986;5.760;2023-05-15T01:52:07;11.90;98.10
69082;DHT22;69029;51.986;5.760;2023-05-15T01:54:36;11.80;94.30
69082;DHT22;69029;51.986;5.760;2023-05-15T01:57:03;11.80;98.90
69082;DHT22;69029;51.986;5.760;2023-05-15T01:59:29;11.80;96.70
69082;DHT22;69029;51.986;5.760;2023-05-15T02:01:56;11.70;99.60
69082;DHT22;69029;51.986;5.760;2023-05-15T02:04:23;11.70;99.00
69082;DHT22;69029;51.986;5.760;2023-05-15T02:06:50;11.70;97.60
69082;DHT22;69029;51.986;5.760;2023-05-15T02:09:19;11.70;97.60
69082;DHT22;69029;51.986;5.760;2023-05-15T02:11:45;11.70;99.90
69082;DHT22;69029;51.986;5.760;2023-05-15T02:14:12;11.60;98.80
69082;DHT22;69029;51.986;5.760;2023-05-15T02:16:39;11.60;99.90
69082;DHT22;69029;51.986;5.760;2023-05-15T02:19:04;11.60;99.90
69082;DHT22;69029;51.986;5.760;2023-05-15T02:21:30;11.50;99.80
69082;DHT22;69029;51.986;5.760;2023-05-15T02:23:56;11.50;98.10
69082;DHT22;69029;51.986;5.760;2023-05-15T02:26:39;11.50;99.90
69082;DHT22;69029;51.986;5.760;2023-05-15T02:32:17;11.40;99.80
69082;DHT22;69029;51.986;5.760;2023-05-15T02:37:34;11.40;99.90
69082;DHT22;69029;51.986;5.760;2023-05-15T02:40:00;11.30;99.90
69082;DHT22;69029;51.986;5.760;2023-05-15T02:42:28;11.30;99.90
69082;DHT22;69029;51.986;5.760;2023-05-15T02:44:54;11.30;99.90
69082;DHT22;69029;51.986;5.760;2023-05-15T02:47:22;11.20;99.90
69082;DHT22;69029;51.986;5.760;2023-05-15T02:49:48;11.20;99.90
69082;DHT22;69029;51.986;5.760;2023-05-15T02:52:14;11.20;99.90
69082;DHT22;69029;51.986;5.760;2023-05-15T02:54:40;11.20;99.90
69082;DHT22;69029;51.986;5.760;2023-05-15T02:57:07;11.20;97.40
69082;DHT22;69029;51.986;5.760;2023-05-15T02:59:33;11.20;96.80
69082;DHT22;69029;51.986;5.760;2023-05-15T03:01:59;11.20;96.90
69082;DHT22;69029;51.986;5.760;2023-05-15T03:04:24;11.30;99.90
69082;DHT22;69029;51.986;5.760;2023-05-15T03:06:50;11.30;99.90
69082;DHT22;69029;51.986;5.760;2023-05-15T03:09:16;11.40;99.90
69082;DHT22;69029;51.986;5.760;2023-05-15T03:11:42;11.50;99.90
69082;DHT22;69029;51.986;5.760;2023-05-15T03:14:08;11.60;99.90
69082;DHT22;69029;51.986;5.760;2023-05-15T03:16:33;11.60;99.90
69082;DHT22;69029;51.986;5.760;2023-05-15T03:19:01;11.60;99.90
69082;DHT22;69029;51.986;5.760;2023-05-15T03:21:26;11.70;99.90
69082;DHT22;69029;51.986;5.760;2023-05-15T03:23:52;11.80;99.90
69082;DHT22;69029;51.986;5.760;2023-05-15T03:26:18;11.90;99.90
69082;DHT22;69029;51.986;5.760;2023-05-15T03:28:43;11.90;99.90
69082;DHT22;69029;51.986;5.760;2023-05-15T03:31:09;12.00;99.90
69082;DHT22;69029;51.986;5.760;2023-05-15T03:33:34;12.00;99.90
69082;DHT22;69029;51.986;5.760;2023-05-15T03:36:00;12.00;99.90
69082;DHT22;69029;51.986;5.760;2023-05-15T03:38:25;12.00;99.90
69082;DHT22;69029;51.986;5.760;2023-05-15T03:40:51;12.10;99.90
69082;DHT22;69029;51.986;5.760;2023-05-15T03:43:16;12.30;99.90
69082;DHT22;69029;51.986;5.760;2023-05-15T03:45:43;12.40;99.90
69082;DHT22;69029;51.986;5.760;2023-05-15T03:48:08;12.40;99.90
69082;DHT22;69029;51.986;5.760;2023-05-15T03:50:34;12.40;99.90
69082;DHT22;69029;51.986;5.760;2023-05-15T03:52:59;12.30;99.90
69082;DHT22;69029;51.986;5.760;2023-05-15T03:55:25;12.40;99.90
69082;DHT22;69029;51.986;5.760;2023-05-15T03:57:51;12.40;99.90
69082;DHT22;69029;51.986;5.760;2023-05-15T04:00:16;12.30;99.90
69082;DHT22;69029;51.986;5.760;2023-05-15T04:02:42;12.30;99.90
69082;DHT22;69029;51.986;5.760;2023-05-15T04:05:08;12.30;99.90
69082;DHT22;69029;51.986;5.760;2023-05-15T04:07:35;12.30;99.90
69082;DHT22;69029;51.986;5.760;2023-05-15T04:10:03;12.30;99.90
69082;DHT22;69029;51.986;5.760;2023-05-15T04:12:30;12.20;99.90
69082;DHT22;69029;51.986;5.760;2023-05-15T04:14:58;12.20;98.20
69082;DHT22;69029;51.986;5.760;2023-05-15T04:17:24;12.20;99.90
69082;DHT22;69029;51.986;5.760;2023-05-15T04:19:50;12.10;99.90
69082;DHT22;69029;51.986;5.760;2023-05-15T04:22:15;12.10;99.90
69082;DHT22;69029;51.986;5.760;2023-05-15T04:24:42;12.10;99.90
69082;DHT22;69029;51.986;5.760;2023-05-15T04:27:08;12.00;99.90
69082;DHT22;69029;51.986;5.760;2023-05-15T04:29:33;12.00;99.90
69082;DHT22;69029;51.986;5.760;2023-05-15T04:31:59;12.00;99.90
69082;DHT22;69029;51.986;5.760;2023-05-15T04:34:24;12.10;99.90
69082;DHT22;69029;51.986;5.760;2023-05-15T04:36:50;12.10;97.40
69082;DHT22;69029;51.986;5.760;2023-05-15T04:39:16;12.30;99.90
69082;DHT22;69029;51.986;5.760;2023-05-15T04:41:41;12.30;99.90
69082;DHT22;69029;51.986;5.760;2023-05-15T04:44:07;12.30;99.90
69082;DHT22;69029;51.986;5.760;2023-05-15T04:46:33;12.30;99.90
69082;DHT22;69029;51.986;5.760;2023-05-15T04:48:59;12.40;99.90
69082;DHT22;69029;51.986;5.760;2023-05-15T04:51:25;12.30;99.90
69082;DHT22;69029;51.986;5.760;2023-05-15T04:53:50;12.30;98.30
69082;DHT22;69029;51.986;5.760;2023-05-15T04:56:16;12.40;98.90
69082;DHT22;69029;51.986;5.760;2023-05-15T04:58:41;12.50;99.90
69082;DHT22;69029;51.986;5.760;2023-05-15T05:01:07;12.50;99.90
69082;DHT22;69029;51.986;5.760;2023-05-15T05:03:34;12.60;99.90
69082;DHT22;69029;51.986;5.760;2023-05-15T05:05:59;12.60;99.00
69082;DHT22;69029;51.986;5.760;2023-05-15T05:08:25;12.60;96.90
69082;DHT22;69029;51.986;5.760;2023-05-15T05:10:57;12.70;99.90
69082;DHT22;69029;51.986;5.760;2023-05-15T05:13:23;12.70;99.20
69082;DHT22;69029;51.986;5.760;2023-05-15T05:15:48;12.70;99.90
69082;DHT22;69029;51.986;5.760;2023-05-15T05:18:14;12.70;99.90
69082;DHT22;69029;51.986;5.760;2023-05-15T05:20:41;12.70;96.50
69082;DHT22;69029;51.986;5.760;2023-05-15T05:23:06;12.70;96.30
69082;DHT22;69029;51.986;5.760;2023-05-15T05:25:33;12.80;99.90
69082;DHT22;69029;51.986;5.760;2023-05-15T05:28:00;12.80;97.20
69082;DHT22;69029;51.986;5.760;2023-05-15T05:30:26;12.90;98.10
69082;DHT22;69029;51.986;5.760;2023-05-15T05:32:51;12.90;94.80
69082;DHT22;69029;51.986;5.760;2023-05-15T05:35:17;13.00;98.00
69082;DHT22;69029;51.986;5.760;2023-05-15T05:37:43;13.00;93.20
69082;DHT22;69029;51.986;5.760;2023-05-15T05:40:09;13.10;96.50
69082;DHT22;69029;51.986;5.760;2023-05-15T05:42:35;13.20;98.20
69082;DHT22;69029;51.986;5.760;2023-05-15T05:45:00;13.20;96.40
69082;DHT22;69029;51.986;5.760;2023-05-15T05:47:26;13.20;95.10
69082;DHT22;69029;51.986;5.760;2023-05-15T05:49:51;13.20;95.50
69082;DHT22;69029;51.986;5.760;2023-05-15T05:52:18;13.30;94.40
69082;DHT22;69029;51.986;5.760;2023-05-15T05:54:43;13.30;92.40
69082;DHT22;69029;51.986;5.760;2023-05-15T05:57:10;13.20;92.90
69082;DHT22;69029;51.986;5.760;2023-05-15T05:59:36;13.00;93.80
69082;DHT22;69029;51.986;5.760;2023-05-15T06:02:02;13.00;93.90
69082;DHT22;69029;51.986;5.760;2023-05-15T06:04:30;13.00;94.50
69082;DHT22;69029;51.986;5.760;2023-05-15T06:06:56;13.00;95.00
69082;DHT22;69029;51.986;5.760;2023-05-15T06:09:22;13.10;94.30
69082;DHT22;69029;51.986;5.760;2023-05-15T06:11:48;13.20;95.50
69082;DHT22;69029;51.986;5.760;2023-05-15T06:14:14;13.20;94.70
69082;DHT22;69029;51.986;5.760;2023-05-15T06:16:39;13.20;90.30
69082;DHT22;69029;51.986;5.760;2023-05-15T06:19:05;13.20;91.20
69082;DHT22;69029;51.986;5.760;2023-05-15T06:21:31;13.10;91.70
69082;DHT22;69029;51.986;5.760;2023-05-15T06:23:57;13.10;93.00
69082;DHT22;69029;51.986;5.760;2023-05-15T06:26:22;13.10;95.90
69082;DHT22;69029;51.986;5.760;2023-05-15T06:28:49;13.10;94.70
69082;DHT22;69029;51.986;5.760;2023-05-15T06:31:15;13.20;96.80
69082;DHT22;69029;51.986;5.760;2023-05-15T06:33:42;13.20;95.40
69082;DHT22;69029;51.986;5.760;2023-05-15T06:36:07;13.30;95.70
69082;DHT22;69029;51.986;5.760;2023-05-15T06:38:33;13.40;94.70
69082;DHT22;69029;51.986;5.760;2023-05-15T06:40:59;13.40;97.20
69082;DHT22;69029;51.986;5.760;2023-05-15T06:43:24;13.50;96.00
69082;DHT22;69029;51.986;5.760;2023-05-15T06:45:50;13.60;94.50
69082;DHT22;69029;51.986;5.760;2023-05-15T06:48:16;13.70;95.60
69082;DHT22;69029;51.986;5.760;2023-05-15T06:50:41;13.70;95.80
69082;DHT22;69029;51.986;5.760;2023-05-15T06:53:07;13.80;93.80
69082;DHT22;69029;51.986;5.760;2023-05-15T06:55:32;13.80;91.10
69082;DHT22;69029;51.986;5.760;2023-05-15T06:58:00;13.80;91.50
69082;DHT22;69029;51.986;5.760;2023-05-15T07:00:26;13.80;91.40
69082;DHT22;69029;51.986;5.760;2023-05-15T07:02:51;13.90;93.50
69082;DHT22;69029;51.986;5.760;2023-05-15T07:05:17;13.90;93.50
69082;DHT22;69029;51.986;5.760;2023-05-15T07:07:43;13.90;88.80
69082;DHT22;69029;51.986;5.760;2023-05-15T07:10:08;14.00;91.90
69082;DHT22;69029;51.986;5.760;2023-05-15T07:12:34;14.00;91.10
69082;DHT22;69029;51.986;5.760;2023-05-15T07:15:00;14.10;90.70
69082;DHT22;69029;51.986;5.760;2023-05-15T07:17:25;14.10;90.00
69082;DHT22;69029;51.986;5.760;2023-05-15T07:19:51;14.20;88.50
69082;DHT22;69029;51.986;5.760;2023-05-15T07:22:16;14.30;89.60
69082;DHT22;69029;51.986;5.760;2023-05-15T07:24:42;14.30;84.00
69082;DHT22;69029;51.986;5.760;2023-05-15T07:27:09;14.30;86.80
69082;DHT22;69029;51.986;5.760;2023-05-15T07:29:34;14.20;84.90
69082;DHT22;69029;51.986;5.760;2023-05-15T07:32:00;14.30;88.70
69082;DHT22;69029;51.986;5.760;2023-05-15T07:34:25;14.30;85.10
69082;DHT22;69029;51.986;5.760;2023-05-15T07:36:51;14.40;84.80
69082;DHT22;69029;51.986;5.760;2023-05-15T07:39:17;14.40;87.80
69082;DHT22;69029;51.986;5.760;2023-05-15T07:41:42;14.50;84.30
69082;DHT22;69029;51.986;5.760;2023-05-15T07:44:08;14.50;87.10
69082;DHT22;69029;51.986;5.760;2023-05-15T07:46:34;14.60;86.40
69082;DHT22;69029;51.986;5.760;2023-05-15T07:48:59;14.60;84.20
69082;DHT22;69029;51.986;5.760;2023-05-15T07:51:25;14.70;84.30
69082;DHT22;69029;51.986;5.760;2023-05-15T07:53:50;14.70;84.70
69082;DHT22;69029;51.986;5.760;2023-05-15T07:56:16;14.70;85.80
69082;DHT22;69029;51.986;5.760;2023-05-15T07:58:42;14.80;84.00
69082;DHT22;69029;51.986;5.760;2023-05-15T08:01:07;14.80;82.70
69082;DHT22;69029;51.986;5.760;2023-05-15T08:03:33;14.90;85.60
69082;DHT22;69029;51.986;5.760;2023-05-15T08:05:58;14.90;85.80
69082;DHT22;69029;51.986;5.760;2023-05-15T08:08:24;15.00;84.50
69082;DHT22;69029;51.986;5.760;2023-05-15T08:10:50;15.00;79.40
69082;DHT22;69029;51.986;5.760;2023-05-15T08:13:15;15.10;80.60
69082;DHT22;69029;51.986;5.760;2023-05-15T08:15:41;15.10;81.50
69082;DHT22;69029;51.986;5.760;2023-05-15T08:18:10;15.20;80.40
69082;DHT22;69029;51.986;5.760;2023-05-15T08:20:37;15.20;81.10
69082;DHT22;69029;51.986;5.760;2023-05-15T08:23:02;15.30;83.50
69082;DHT22;69029;51.986;5.760;2023-05-15T08:25:28;15.40;82.90
69082;DHT22;69029;51.986;5.760;2023-05-15T08:27:55;15.60;84.40
69082;DHT22;69029;51.986;5.760;2023-05-15T08:30:20;15.80;82.40
69082;DHT22;69029;51.986;5.760;2023-05-15T08:32:46;15.80;78.90
69082;DHT22;69029;51.986;5.760;2023-05-15T08:35:13;15.80;80.90
69082;DHT22;69029;51.986;5.760;2023-05-15T08:37:39;15.90;83.10
69082;DHT22;69029;51.986;5.760;2023-05-15T08:40:05;16.00;82.60
69082;DHT22;69029;51.986;5.760;2023-05-15T08:42:44;16.00;81.20
69082;DHT22;69029;51.986;5.760;2023-05-15T08:45:11;16.10;81.30
69082;DHT22;69029;51.986;5.760;2023-05-15T08:47:39;16.10;83.20
69082;DHT22;69029;51.986;5.760;2023-05-15T08:50:15;16.30;83.40
69082;DHT22;69029;51.986;5.760;2023-05-15T08:52:45;16.50;79.40
69082;DHT22;69029;51.986;5.760;2023-05-15T08:55:13;16.50;81.40
69082;DHT22;69029;51.986;5.760;2023-05-15T08:57:39;16.70;78.80
69082;DHT22;69029;51.986;5.760;2023-05-15T09:00:07;16.70;78.50
69082;DHT22;69029;51.986;5.760;2023-05-15T09:02:34;16.90;77.90
69082;DHT22;69029;51.986;5.760;2023-05-15T09:05:00;17.10;76.20
69082;DHT22;69029;51.986;5.760;2023-05-15T09:07:28;17.40;76.70
69082;DHT22;69029;51.986;5.760;2023-05-15T09:09:56;17.50;74.90
69082;DHT22;69029;51.986;5.760;2023-05-15T09:12:24;17.70;74.40
69082;DHT22;69029;51.986;5.760;2023-05-15T09:14:50;17.90;75.30
69082;DHT22;69029;51.986;5.760;2023-05-15T09:17:16;18.20;74.60
69082;DHT22;69029;51.986;5.760;2023-05-15T09:19:42;18.40;73.00
69082;DHT22;69029;51.986;5.760;2023-05-15T09:22:19;18.50;72.70
69082;DHT22;69029;51.986;5.760;2023-05-15T09:24:49;18.40;71.30
69082;DHT22;69029;51.986;5.760;2023-05-15T09:27:16;18.40;71.70
69082;DHT22;69029;51.986;5.760;2023-05-15T09:29:42;18.60;72.90
69082;DHT22;69029;51.986;5.760;2023-05-15T09:32:09;18.70;72.30
69082;DHT22;69029;51.986;5.760;2023-05-15T09:34:37;18.80;72.00
69082;DHT22;69029;51.986;5.760;2023-05-15T09:37:05;18.70;71.20
69082;DHT22;69029;51.986;5.760;2023-05-15T09:39:39;18.80;72.50
69082;DHT22;69029;51.986;5.760;2023-05-15T09:42:06;18.90;71.00
69082;DHT22;69029;51.986;5.760;2023-05-15T09:44:32;18.70;68.40
69082;DHT22;69029;51.986;5.760;2023-05-15T09:46:59;18.70;68.90
69082;DHT22;69029;51.986;5.760;2023-05-15T09:49:29;18.90;68.40
69082;DHT22;69029;51.986;5.760;2023-05-15T09:51:59;18.80;68.60
69082;DHT22;69029;51.986;5.760;2023-05-15T09:54:25;19.00;68.80
69082;DHT22;69029;51.986;5.760;2023-05-15T09:56:52;19.10;67.90
69082;DHT22;69029;51.986;5.760;2023-05-15T09:59:18;19.20;66.60
69082;DHT22;69029;51.986;5.760;2023-05-15T10:01:49;19.30;67.60
69082;DHT22;69029;51.986;5.760;2023-05-15T10:04:16;19.10;66.50
69082;DHT22;69029;51.986;5.760;2023-05-15T10:06:46;19.10;66.50
69082;DHT22;69029;51.986;5.760;2023-05-15T10:09:13;19.30;66.90
69082;DHT22;69029;51.986;5.760;2023-05-15T10:11:40;19.40;67.00
69082;DHT22;69029;51.986;5.760;2023-05-15T10:14:09;19.60;66.30
69082;DHT22;69029;51.986;5.760;2023-05-15T10:16:36;19.50;67.10
69082;DHT22;69029;51.986;5.760;2023-05-15T10:19:03;19.50;67.80
69082;DHT22;69029;51.986;5.760;2023-05-15T10:21:32;19.60;68.40
69082;DHT22;69029;51.986;5.760;2023-05-15T10:23:59;19.60;68.10
69082;DHT22;69029;51.986;5.760;2023-05-15T10:26:37;19.60;68.80
69082;DHT22;69029;51.986;5.760;2023-05-15T10:29:15;19.50;68.00
69082;DHT22;69029;51.986;5.760;2023-05-15T10:31:41;19.40;68.60
69082;DHT22;69029;51.986;5.760;2023-05-15T10:34:09;19.50;68.80
69082;DHT22;69029;51.986;5.760;2023-05-15T10:36:36;19.60;67.50
69082;DHT22;69029;51.986;5.760;2023-05-15T10:39:04;19.60;67.30
69082;DHT22;69029;51.986;5.760;2023-05-15T10:41:32;19.60;67.40
69082;DHT22;69029;51.986;5.760;2023-05-15T10:43:59;19.60;66.50
69082;DHT22;69029;51.986;5.760;2023-05-15T10:46:26;19.70;67.20
69082;DHT22;69029;51.986;5.760;2023-05-15T10:48:52;19.80;67.70
69082;DHT22;69029;51.986;5.760;2023-05-15T10:51:26;19.80;67.80
69082;DHT22;69029;51.986;5.760;2023-05-15T10:53:53;19.90;67.00
69082;DHT22;69029;51.986;5.760;2023-05-15T10:56:19;20.00;65.60
69082;DHT22;69029;51.986;5.760;2023-05-15T10:58:47;20.00;66.70
69082;DHT22;69029;51.986;5.760;2023-05-15T11:01:26;20.10;66.30
69082;DHT22;69029;51.986;5.760;2023-05-15T11:04:04;20.20;66.20
69082;DHT22;69029;51.986;5.760;2023-05-15T11:06:31;20.20;65.00
69082;DHT22;69029;51.986;5.760;2023-05-15T11:14:21;20.30;66.30
69082;DHT22;69029;51.986;5.760;2023-05-15T11:25:03;20.30;67.60
69082;DHT22;69029;51.986;5.760;2023-05-15T11:27:30;20.20;67.50
69082;DHT22;69029;51.986;5.760;2023-05-15T11:35:23;20.20;68.20
69082;DHT22;69029;51.986;5.760;2023-05-15T11:38:02;20.30;68.30
69082;DHT22;69029;51.986;5.760;2023-05-15T11:40:43;20.30;68.60
69082;DHT22;69029;51.986;5.760;2023-05-15T11:45:55;20.40;69.00
69082;DHT22;69029;51.986;5.760;2023-05-15T11:48:23;20.40;69.70
69082;DHT22;69029;51.986;5.760;2023-05-15T11:50:49;20.30;69.70
69082;DHT22;69029;51.986;5.760;2023-05-15T11:53:18;20.30;69.70
69082;DHT22;69029;51.986;5.760;2023-05-15T11:55:45;20.10;70.30
69082;DHT22;69029;51.986;5.760;2023-05-15T11:58:15;20.10;70.30
69082;DHT22;69029;51.986;5.760;2023-05-15T12:00:42;20.10;70.00
69082;DHT22;69029;51.986;5.760;2023-05-15T12:05:50;20.10;69.90
69082;DHT22;69029;51.986;5.760;2023-05-15T12:08:17;19.90;70.40
69082;DHT22;69029;51.986;5.760;2023-05-15T12:10:45;19.70;69.90
69082;DHT22;69029;51.986;5.760;2023-05-15T12:13:14;19.80;70.50
69082;DHT22;69029;51.986;5.760;2023-05-15T12:15:45;19.80;70.40
69082;DHT22;69029;51.986;5.760;2023-05-15T12:18:11;19.80;70.30
69082;DHT22;69029;51.986;5.760;2023-05-15T12:20:38;19.70;70.50
69082;DHT22;69029;51.986;5.760;2023-05-15T12:23:07;19.70;70.80
69082;DHT22;69029;51.986;5.760;2023-05-15T12:25:34;19.60;71.40
69082;DHT22;69029;51.986;5.760;2023-05-15T12:28:02;19.60;71.30
69082;DHT22;69029;51.986;5.760;2023-05-15T12:30:32;19.80;71.80
69082;DHT22;69029;51.986;5.760;2023-05-15T12:33:09;19.70;70.40
69082;DHT22;69029;51.986;5.760;2023-05-15T12:35:35;19.80;70.80
69082;DHT22;69029;51.986;5.760;2023-05-15T12:38:05;19.70;70.90
69082;DHT22;69029;51.986;5.760;2023-05-15T12:40:35;19.60;71.30
69082;DHT22;69029;51.986;5.760;2023-05-15T12:43:05;19.30;72.10
69082;DHT22;69029;51.986;5.760;2023-05-15T12:45:32;19.20;72.70
69082;DHT22;69029;51.986;5.760;2023-05-15T12:47:59;19.10;72.90
69082;DHT22;69029;51.986;5.760;2023-05-15T12:50:25;19.30;73.10
69082;DHT22;69029;51.986;5.760;2023-05-15T12:52:56;19.20;72.30
69082;DHT22;69029;51.986;5.760;2023-05-15T12:55:32;19.30;72.30
69082;DHT22;69029;51.986;5.760;2023-05-15T12:58:00;19.20;72.80
69082;DHT22;69029;51.986;5.760;2023-05-15T13:00:29;19.40;72.40
69082;DHT22;69029;51.986;5.760;2023-05-15T13:02:56;19.40;71.70
69082;DHT22;69029;51.986;5.760;2023-05-15T13:05:23;19.60;71.90
69082;DHT22;69029;51.986;5.760;2023-05-15T13:07:49;19.80;71.10
69082;DHT22;69029;51.986;5.760;2023-05-15T13:10:22;19.90;70.40
69082;DHT22;69029;51.986;5.760;2023-05-15T13:12:50;19.90;70.70
69082;DHT22;69029;51.986;5.760;2023-05-15T13:15:35;20.10;70.10
69082;DHT22;69029;51.986;5.760;2023-05-15T13:20:35;20.90;68.30
69082;DHT22;69029;51.986;5.760;2023-05-15T13:23:01;21.40;66.80
69082;DHT22;69029;51.986;5.760;2023-05-15T13:25:27;21.80;66.60
69082;DHT22;69029;51.986;5.760;2023-05-15T13:27:56;22.00;66.00
69082;DHT22;69029;51.986;5.760;2023-05-15T13:30:22;22.20;65.10
69082;DHT22;69029;51.986;5.760;2023-05-15T13:32:48;22.20;64.70
69082;DHT22;69029;51.986;5.760;2023-05-15T13:35:16;22.40;65.30
69082;DHT22;69029;51.986;5.760;2023-05-15T13:37:42;22.80;62.60
69082;DHT22;69029;51.986;5.760;2023-05-15T13:40:09;23.10;62.80
69082;DHT22;69029;51.986;5.760;2023-05-15T13:42:37;23.60;62.70
69082;DHT22;69029;51.986;5.760;2023-05-15T13:45:11;23.20;63.10
69082;DHT22;69029;51.986;5.760;2023-05-15T13:47:37;23.40;63.60
69082;DHT22;69029;51.986;5.760;2023-05-15T13:50:11;23.60;60.90
69082;DHT22;69029;51.986;5.760;2023-05-15T13:52:37;23.30;64.20
69082;DHT22;69029;51.986;5.760;2023-05-15T13:55:03;23.20;63.70
69082;DHT22;69029;51.986;5.760;2023-05-15T13:57:29;22.90;64.30
69082;DHT22;69029;51.986;5.760;2023-05-15T13:59:55;23.00;61.50
69082;DHT22;69029;51.986;5.760;2023-05-15T14:02:21;22.70;64.40
69082;DHT22;69029;51.986;5.760;2023-05-15T14:04:51;22.40;65.50
69082;DHT22;69029;51.986;5.760;2023-05-15T14:07:16;22.10;63.30
69082;DHT22;69029;51.986;5.760;2023-05-15T14:09:42;21.80;64.40
69082;DHT22;69029;51.986;5.760;2023-05-15T14:12:07;21.80;65.50
69082;DHT22;69029;51.986;5.760;2023-05-15T14:14:34;22.00;65.70
69082;DHT22;69029;51.986;5.760;2023-05-15T14:17:00;22.40;63.20
69082;DHT22;69029;51.986;5.760;2023-05-15T14:19:25;22.50;62.60
69082;DHT22;69029;51.986;5.760;2023-05-15T14:21:51;22.40;63.20
69082;DHT22;69029;51.986;5.760;2023-05-15T14:24:23;22.30;63.00
69082;DHT22;69029;51.986;5.760;2023-05-15T14:26:49;22.60;61.90
69082;DHT22;69029;51.986;5.760;2023-05-15T14:29:15;23.20;62.20
69082;DHT22;69029;51.986;5.760;2023-05-15T14:31:41;23.00;60.80
69082;DHT22;69029;51.986;5.760;2023-05-15T14:34:07;22.60;60.00
69082;DHT22;69029;51.986;5.760;2023-05-15T14:36:33;21.90;62.70
69082;DHT22;69029;51.986;5.760;2023-05-15T14:38:58;21.50;64.40
69082;DHT22;69029;51.986;5.760;2023-05-15T14:41:24;21.00;64.60
69082;DHT22;69029;51.986;5.760;2023-05-15T14:43:51;20.90;66.80
69082;DHT22;69029;51.986;5.760;2023-05-15T14:46:17;20.70;66.90
69082;DHT22;69029;51.986;5.760;2023-05-15T14:48:42;20.60;68.60
69082;DHT22;69029;51.986;5.760;2023-05-15T14:51:08;20.90;68.70
69082;DHT22;69029;51.986;5.760;2023-05-15T14:53:34;21.60;67.40
69082;DHT22;69029;51.986;5.760;2023-05-15T14:55:59;21.90;63.60
69082;DHT22;69029;51.986;5.760;2023-05-15T14:58:25;21.70;65.20
69082;DHT22;69029;51.986;5.760;2023-05-15T15:00:51;21.40;65.80
69082;DHT22;69029;51.986;5.760;2023-05-15T15:03:17;21.10;66.60
69082;DHT22;69029;51.986;5.760;2023-05-15T15:05:43;20.80;67.40
69082;DHT22;69029;51.986;5.760;2023-05-15T15:08:09;21.00;67.90
69082;DHT22;69029;51.986;5.760;2023-05-15T15:10:37;21.20;66.40
69082;DHT22;69029;51.986;5.760;2023-05-15T15:13:03;21.50;65.30
69082;DHT22;69029;51.986;5.760;2023-05-15T15:15:30;22.60;63.40
69082;DHT22;69029;51.986;5.760;2023-05-15T15:17:56;22.90;62.30
69082;DHT22;69029;51.986;5.760;2023-05-15T15:20:22;23.10;59.90
69082;DHT22;69029;51.986;5.760;2023-05-15T15:22:50;22.40;60.20
69082;DHT22;69029;51.986;5.760;2023-05-15T15:25:15;22.00;62.30
69082;DHT22;69029;51.986;5.760;2023-05-15T15:27:42;21.50;62.10
69082;DHT22;69029;51.986;5.760;2023-05-15T15:30:09;21.20;65.50
69082;DHT22;69029;51.986;5.760;2023-05-15T15:32:36;21.00;65.90
69082;DHT22;69029;51.986;5.760;2023-05-15T15:35:02;20.80;65.70
69082;DHT22;69029;51.986;5.760;2023-05-15T15:37:32;20.40;67.60
69082;DHT22;69029;51.986;5.760;2023-05-15T15:39:59;20.60;67.20
69082;DHT22;69029;51.986;5.760;2023-05-15T15:42:26;20.30;66.60
69082;DHT22;69029;51.986;5.760;2023-05-15T15:44:55;20.30;67.60
69082;DHT22;69029;51.986;5.760;2023-05-15T15:47:21;20.10;67.80
69082;DHT22;69029;51.986;5.760;2023-05-15T15:49:47;20.00;67.80
69082;DHT22;69029;51.986;5.760;2023-05-15T15:52:13;19.80;68.30
69082;DHT22;69029;51.986;5.760;2023-05-15T15:54:38;19.80;68.30
69082;DHT22;69029;51.986;5.760;2023-05-15T15:57:13;19.70;68.90
69082;DHT22;69029;51.986;5.760;2023-05-15T15:59:39;19.50;69.60
69082;DHT22;69029;51.986;5.760;2023-05-15T16:02:05;19.40;69.90
69082;DHT22;69029;51.986;5.760;2023-05-15T16:04:32;19.20;71.60
69082;DHT22;69029;51.986;5.760;2023-05-15T16:06:57;19.20;70.30